Time;durP1;ratioP1;P1;durP2;ratioP2;P2;SDS_P1;SDS_P2;PMS_P1;PMS_P2;Temp;Humidity;BMP_temperature;BMP_pressure;BME280_temperature;BME280_humidity;BME280_pressure;Samples;Min_cycle;Max_cycle;Signal;HPM_P1;HPM_P2
2021/03/20 00:00:50;;;;;;;13.6;7.75;;;;;;;-1.59;100;95605.51;;;;
2021/03/20 00:01:54;;;;;;;13.6;7.75;;;;;;;-1.59;100;95605.51;;;;
2021/03/20 00:02:55;;;;;;;13.25;7.55;;;;;;;-1.78;100;95614.54;;;;
2021/03/20 00:03:56;;;;;;;13.25;7.55;;;;;;;-1.78;100;95614.54;;;;
2021/03/20 00:04:56;;;;;;;13.25;7.55;;;;;;;-1.78;100;95614.54;;;;
2021/03/20 00:05:57;;;;;;;13.25;7.55;;;;;;;-1.78;100;95614.54;;;;
2021/03/20 00:06:57;;;;;;;13.25;7.55;;;;;;;-1.78;100;95614.54;;;;
2021/03/20 00:07:58;;;;;;;13.25;7.55;;;;;;;-1.78;100;95614.54;;;;
2021/03/20 00:08:59;;;;;;;13.25;7.55;;;;;;;-1.78;100;95614.54;;;;
2021/03/20 00:10:04;;;;;;;13.25;7.55;;;;;;;-1.78;100;95614.54;;;;
2021/03/20 00:11:07;;;;;;;13.25;7.55;;;;;;;-1.78;100;95614.54;;;;
2021/03/20 00:12:08;;;;;;;13.25;7.55;;;;;;;-1.78;100;95614.54;;;;
2021/03/20 00:13:09;;;;;;;13.25;7.55;;;;;;;-1.78;100;95614.54;;;;
2021/03/20 00:14:10;;;;;;;12.75;7.6;;;;;;;-2;100;95613.26;;;;
2021/03/20 00:15:14;;;;;;;12.75;7.6;;;;;;;-2;100;95613.26;;;;
2021/03/20 00:16:18;;;;;;;12.75;7.6;;;;;;;-2;100;95613.26;;;;
2021/03/20 00:17:19;;;;;;;12.75;7.6;;;;;;;-2;100;95613.26;;;;
2021/03/20 00:18:19;;;;;;;12.75;7.6;;;;;;;-2;100;95613.26;;;;
2021/03/20 00:19:21;;;;;;;12.75;7.6;;;;;;;-2;100;95613.26;;;;
2021/03/20 00:20:23;;;;;;;12.75;7.6;;;;;;;-2;100;95613.26;;;;
2021/03/20 00:21:27;;;;;;;12.75;7.6;;;;;;;-2;100;95613.26;;;;
2021/03/20 00:22:28;;;;;;;12.75;7.6;;;;;;;-2;100;95613.26;;;;
2021/03/20 00:23:30;;;;;;;12.75;7.6;;;;;;;-2;100;95613.26;;;;
2021/03/20 00:24:30;;;;;;;12.65;7.449999;;;;;;;-2.26;100;95622.42;;;;
2021/03/20 00:25:31;;;;;;;12.65;7.449999;;;;;;;-2.26;100;95622.42;;;;
2021/03/20 00:26:32;;;;;;;12.65;7.449999;;;;;;;-2.26;100;95622.42;;;;
2021/03/20 00:27:33;;;;;;;12.65;7.449999;;;;;;;-2.26;100;95622.42;;;;
2021/03/20 00:28:34;;;;;;;12.65;7.449999;;;;;;;-2.26;100;95622.42;;;;
2021/03/20 00:29:34;;;;;;;12.65;7.449999;;;;;;;-2.26;100;95622.42;;;;
2021/03/20 00:30:35;;;;;;;12.65;7.449999;;;;;;;-2.26;100;95622.42;;;;
2021/03/20 00:31:36;;;;;;;12.65;7.449999;;;;;;;-2.26;100;95622.42;;;;
2021/03/20 00:32:37;;;;;;;12.65;7.449999;;;;;;;-2.26;100;95622.42;;;;
2021/03/20 00:33:38;;;;;;;12.65;7.449999;;;;;;;-2.26;100;95622.42;;;;
2021/03/20 00:34:41;;;;;;;12.65;7.449999;;;;;;;-2.26;100;95622.42;;;;
2021/03/20 00:35:42;;;;;;;13.65;8;;;;;;;-2.25;100;95629.78;;;;
2021/03/20 00:36:43;;;;;;;13.65;8;;;;;;;-2.25;100;95629.78;;;;
2021/03/20 00:37:43;;;;;;;13.65;8;;;;;;;-2.25;100;95629.78;;;;
2021/03/20 00:38:44;;;;;;;13.65;8;;;;;;;-2.25;100;95629.78;;;;
2021/03/20 00:39:44;;;;;;;13.65;8;;;;;;;-2.25;100;95629.78;;;;
2021/03/20 00:40:45;;;;;;;13.65;8;;;;;;;-2.25;100;95629.78;;;;
2021/03/20 00:41:46;;;;;;;13.65;8;;;;;;;-2.25;100;95629.78;;;;
2021/03/20 00:42:47;;;;;;;13.65;8;;;;;;;-2.25;100;95629.78;;;;
2021/03/20 00:43:48;;;;;;;13.65;8;;;;;;;-2.25;100;95629.78;;;;
2021/03/20 00:44:49;;;;;;;13.65;8;;;;;;;-2.25;100;95629.78;;;;
2021/03/20 00:45:49;;;;;;;13.65;7.849999;;;;;;;-2.04;100;95633.47;;;;
2021/03/20 00:46:51;;;;;;;13.65;7.849999;;;;;;;-2.04;100;95633.47;;;;
2021/03/20 00:47:51;;;;;;;13.65;7.849999;;;;;;;-2.04;100;95633.47;;;;
2021/03/20 00:48:53;;;;;;;13.65;7.849999;;;;;;;-2.04;100;95633.47;;;;
2021/03/20 00:49:53;;;;;;;13.65;7.849999;;;;;;;-2.04;100;95633.47;;;;
2021/03/20 00:50:54;;;;;;;13.65;7.849999;;;;;;;-2.04;100;95633.47;;;;
2021/03/20 00:51:56;;;;;;;13.65;7.849999;;;;;;;-2.04;100;95633.47;;;;
2021/03/20 00:52:56;;;;;;;13.65;7.849999;;;;;;;-2.04;100;95633.47;;;;
2021/03/20 00:53:57;;;;;;;13.65;7.849999;;;;;;;-2.04;100;95633.47;;;;
2021/03/20 00:54:58;;;;;;;13.65;7.849999;;;;;;;-2.04;100;95633.47;;;;
2021/03/20 00:55:59;;;;;;;13.65;7.849999;;;;;;;-2.04;100;95633.47;;;;
2021/03/20 00:57:00;;;;;;;12.8;7.4;;;;;;;-1.87;100;95636.63;;;;
2021/03/20 00:58:01;;;;;;;12.8;7.4;;;;;;;-1.87;100;95636.63;;;;
2021/03/20 00:59:17;;;;;;;12.8;7.4;;;;;;;-1.87;100;95636.63;;;;
2021/03/20 01:00:18;;;;;;;12.8;7.4;;;;;;;-1.87;100;95636.63;;;;
2021/03/20 01:01:22;;;;;;;12.8;7.4;;;;;;;-1.87;100;95636.63;;;;
2021/03/20 01:02:23;;;;;;;12.8;7.4;;;;;;;-1.87;100;95636.63;;;;
2021/03/20 01:03:23;;;;;;;12.8;7.4;;;;;;;-1.87;100;95636.63;;;;
2021/03/20 01:04:24;;;;;;;12.8;7.4;;;;;;;-1.87;100;95636.63;;;;
2021/03/20 01:05:25;;;;;;;12.8;7.4;;;;;;;-1.87;100;95636.63;;;;
2021/03/20 01:06:26;;;;;;;12.8;7.4;;;;;;;-1.87;100;95636.63;;;;
2021/03/20 01:07:28;;;;;;;12.15;7.349999;;;;;;;-1.82;100;95636.99;;;;
2021/03/20 01:08:28;;;;;;;12.15;7.349999;;;;;;;-1.82;100;95636.99;;;;
2021/03/20 01:09:29;;;;;;;12.15;7.349999;;;;;;;-1.82;100;95636.99;;;;
2021/03/20 01:10:29;;;;;;;12.15;7.349999;;;;;;;-1.82;100;95636.99;;;;
2021/03/20 01:11:30;;;;;;;12.15;7.349999;;;;;;;-1.82;100;95636.99;;;;
2021/03/20 01:12:30;;;;;;;12.15;7.349999;;;;;;;-1.82;100;95636.99;;;;
2021/03/20 01:13:31;;;;;;;12.15;7.349999;;;;;;;-1.82;100;95636.99;;;;
2021/03/20 01:14:32;;;;;;;12.15;7.349999;;;;;;;-1.82;100;95636.99;;;;
2021/03/20 01:15:32;;;;;;;12.15;7.349999;;;;;;;-1.82;100;95636.99;;;;
2021/03/20 01:16:34;;;;;;;12.15;7.349999;;;;;;;-1.82;100;95636.99;;;;
2021/03/20 01:17:34;;;;;;;13.2;7.25;;;;;;;-1.84;100;95638.47;;;;
2021/03/20 01:18:35;;;;;;;13.2;7.25;;;;;;;-1.84;100;95638.47;;;;
2021/03/20 01:19:37;;;;;;;13.2;7.25;;;;;;;-1.84;100;95638.47;;;;
2021/03/20 01:20:37;;;;;;;13.2;7.25;;;;;;;-1.84;100;95638.47;;;;
2021/03/20 01:21:39;;;;;;;13.2;7.25;;;;;;;-1.84;100;95638.47;;;;
2021/03/20 01:22:40;;;;;;;13.2;7.25;;;;;;;-1.84;100;95638.47;;;;
2021/03/20 01:23:41;;;;;;;13.2;7.25;;;;;;;-1.84;100;95638.47;;;;
2021/03/20 01:24:42;;;;;;;13.2;7.25;;;;;;;-1.84;100;95638.47;;;;
2021/03/20 01:25:42;;;;;;;13.2;7.25;;;;;;;-1.84;100;95638.47;;;;
2021/03/20 01:26:43;;;;;;;13.2;7.25;;;;;;;-1.84;100;95638.47;;;;
2021/03/20 01:27:43;;;;;;;13.2;7.25;;;;;;;-1.84;100;95638.47;;;;
2021/03/20 01:28:48;;;;;;;13.2;7.25;;;;;;;-1.84;100;95638.47;;;;
2021/03/20 01:29:49;;;;;;;13.2;7.25;;;;;;;-1.84;100;95638.47;;;;
2021/03/20 01:30:49;;;;;;;13.2;7.25;;;;;;;-1.84;100;95638.47;;;;
2021/03/20 01:31:51;;;;;;;13.2;7.25;;;;;;;-1.84;100;95638.47;;;;
2021/03/20 01:32:51;;;;;;;13.2;7.25;;;;;;;-1.84;100;95638.47;;;;
2021/03/20 01:33:52;;;;;;;13.2;7.25;;;;;;;-1.84;100;95638.47;;;;
2021/03/20 01:34:53;;;;;;;13.2;7.25;;;;;;;-1.84;100;95638.47;;;;
2021/03/20 01:35:53;;;;;;;13.2;7.25;;;;;;;-1.84;100;95638.47;;;;
2021/03/20 01:36:54;;;;;;;13.2;7.25;;;;;;;-1.84;100;95638.47;;;;
2021/03/20 01:37:55;;;;;;;13.2;7.25;;;;;;;-1.84;100;95638.47;;;;
2021/03/20 01:38:55;;;;;;;13.2;7.25;;;;;;;-1.84;100;95638.47;;;;
2021/03/20 01:39:56;;;;;;;12.1;6.95;;;;;;;-2.06;100;95636.76;;;;
2021/03/20 01:40:56;;;;;;;12.1;6.95;;;;;;;-2.06;100;95636.76;;;;
2021/03/20 01:42:01;;;;;;;12.1;6.95;;;;;;;-2.06;100;95636.76;;;;
2021/03/20 01:43:04;;;;;;;12.1;6.95;;;;;;;-2.06;100;95636.76;;;;
2021/03/20 01:44:05;;;;;;;12.1;6.95;;;;;;;-2.06;100;95636.76;;;;
2021/03/20 01:45:06;;;;;;;12.1;6.95;;;;;;;-2.06;100;95636.76;;;;
2021/03/20 01:46:10;;;;;;;12.1;6.95;;;;;;;-2.06;100;95636.76;;;;
2021/03/20 01:47:40;;;;;;;12.1;6.95;;;;;;;-2.06;100;95636.76;;;;
2021/03/20 01:48:49;;;;;;;12.1;6.95;;;;;;;-2.06;100;95636.76;;;;
2021/03/20 01:49:49;;;;;;;10.45;6.55;;;;;;;-2.42;100;95637.7;;;;
2021/03/20 01:50:50;;;;;;;10.45;6.55;;;;;;;-2.42;100;95637.7;;;;
2021/03/20 01:51:55;;;;;;;10.45;6.55;;;;;;;-2.42;100;95637.7;;;;
2021/03/20 01:53:01;;;;;;;10.45;6.55;;;;;;;-2.42;100;95637.7;;;;
2021/03/20 01:54:17;;;;;;;10.45;6.55;;;;;;;-2.42;100;95637.7;;;;
2021/03/20 01:55:17;;;;;;;10.45;6.55;;;;;;;-2.42;100;95637.7;;;;
2021/03/20 01:56:18;;;;;;;10.45;6.55;;;;;;;-2.42;100;95637.7;;;;
2021/03/20 01:57:23;;;;;;;10.45;6.55;;;;;;;-2.42;100;95637.7;;;;
2021/03/20 01:58:28;;;;;;;10.45;6.55;;;;;;;-2.42;100;95637.7;;;;
2021/03/20 01:59:30;;;;;;;10.45;6.55;;;;;;;-2.42;100;95637.7;;;;
2021/03/20 02:00:32;;;;;;;11.55;7.100001;;;;;;;-2.73;100;95637.17;;;;
2021/03/20 02:01:36;;;;;;;11.55;7.100001;;;;;;;-2.73;100;95637.17;;;;
2021/03/20 02:02:37;;;;;;;11.55;7.100001;;;;;;;-2.73;100;95637.17;;;;
2021/03/20 02:03:37;;;;;;;11.55;7.100001;;;;;;;-2.73;100;95637.17;;;;
2021/03/20 02:04:38;;;;;;;11.55;7.100001;;;;;;;-2.73;100;95637.17;;;;
2021/03/20 02:05:39;;;;;;;11.55;7.100001;;;;;;;-2.73;100;95637.17;;;;
2021/03/20 02:06:39;;;;;;;11.55;7.100001;;;;;;;-2.73;100;95637.17;;;;
2021/03/20 02:07:40;;;;;;;11.55;7.100001;;;;;;;-2.73;100;95637.17;;;;
2021/03/20 02:08:41;;;;;;;11.55;7.100001;;;;;;;-2.73;100;95637.17;;;;
2021/03/20 02:09:47;;;;;;;11.55;7.100001;;;;;;;-2.73;100;95637.17;;;;
2021/03/20 02:10:47;;;;;;;11.55;7.100001;;;;;;;-2.73;100;95637.17;;;;
2021/03/20 02:11:49;;;;;;;11.85;6.85;;;;;;;-2.92;100;95637.28;;;;
2021/03/20 02:13:00;;;;;;;11.85;6.85;;;;;;;-2.92;100;95637.28;;;;
2021/03/20 02:14:07;;;;;;;11.85;6.85;;;;;;;-2.92;100;95637.28;;;;
2021/03/20 02:15:17;;;;;;;11.85;6.85;;;;;;;-2.92;100;95637.28;;;;
2021/03/20 02:16:23;;;;;;;11.85;6.85;;;;;;;-2.92;100;95637.28;;;;
2021/03/20 02:17:27;;;;;;;11.85;6.85;;;;;;;-2.92;100;95637.28;;;;
2021/03/20 02:18:39;;;;;;;11.85;6.85;;;;;;;-2.92;100;95637.28;;;;
2021/03/20 02:19:45;;;;;;;11.85;6.85;;;;;;;-2.92;100;95637.28;;;;
2021/03/20 02:21:18;;;;;;;11.85;6.85;;;;;;;-2.92;100;95637.28;;;;
2021/03/20 02:22:24;;;;;;;11.3;6.65;;;;;;;-3.15;100;95636.8;;;;
2021/03/20 02:23:48;;;;;;;11.3;6.65;;;;;;;-3.15;100;95636.8;;;;
2021/03/20 02:29:07;;;;;;;11.3;6.65;;;;;;;-3.15;100;95636.8;;;;
2021/03/20 02:30:33;;;;;;;11.3;6.65;;;;;;;-3.15;100;95636.8;;;;
2021/03/20 02:32:24;;;;;;;14.35;8.549999;;;;;;;-3.12;100;95637.84;;;;
2021/03/20 02:33:39;;;;;;;14.35;8.549999;;;;;;;-3.12;100;95637.84;;;;
2021/03/20 02:34:55;;;;;;;14.35;8.549999;;;;;;;-3.12;100;95637.84;;;;
2021/03/20 02:36:05;;;;;;;14.35;8.549999;;;;;;;-3.12;100;95637.84;;;;
2021/03/20 02:37:18;;;;;;;14.35;8.549999;;;;;;;-3.12;100;95637.84;;;;
2021/03/20 02:38:26;;;;;;;14.35;8.549999;;;;;;;-3.12;100;95637.84;;;;
2021/03/20 02:39:36;;;;;;;14.35;8.549999;;;;;;;-3.12;100;95637.84;;;;
2021/03/20 02:40:46;;;;;;;14.35;8.549999;;;;;;;-3.12;100;95637.84;;;;
2021/03/20 02:41:58;;;;;;;14.35;8.549999;;;;;;;-3.12;100;95637.84;;;;
2021/03/20 02:43:06;;;;;;;15;8.950001;;;;;;;-2.74;100;95643.45;;;;
2021/03/20 02:44:16;;;;;;;15;8.950001;;;;;;;-2.74;100;95643.45;;;;
2021/03/20 02:45:21;;;;;;;15;8.950001;;;;;;;-2.74;100;95643.45;;;;
2021/03/20 02:46:33;;;;;;;15;8.950001;;;;;;;-2.74;100;95643.45;;;;
2021/03/20 02:47:37;;;;;;;15;8.950001;;;;;;;-2.74;100;95643.45;;;;
2021/03/20 02:48:43;;;;;;;15;8.950001;;;;;;;-2.74;100;95643.45;;;;
2021/03/20 02:49:51;;;;;;;15;8.950001;;;;;;;-2.74;100;95643.45;;;;
2021/03/20 02:50:57;;;;;;;15;8.950001;;;;;;;-2.74;100;95643.45;;;;
2021/03/20 02:52:02;;;;;;;15;8.950001;;;;;;;-2.74;100;95643.45;;;;
2021/03/20 02:53:08;;;;;;;15;8.950001;;;;;;;-2.74;100;95643.45;;;;
2021/03/20 02:54:16;;;;;;;16.25;8.95;;;;;;;-2.36;100;95640.6;;;;
2021/03/20 02:55:25;;;;;;;16.25;8.95;;;;;;;-2.36;100;95640.6;;;;
2021/03/20 02:56:30;;;;;;;16.25;8.95;;;;;;;-2.36;100;95640.6;;;;
2021/03/20 02:57:40;;;;;;;16.25;8.95;;;;;;;-2.36;100;95640.6;;;;
2021/03/20 02:58:47;;;;;;;16.25;8.95;;;;;;;-2.36;100;95640.6;;;;
2021/03/20 02:59:52;;;;;;;16.25;8.95;;;;;;;-2.36;100;95640.6;;;;
2021/03/20 03:00:57;;;;;;;16.25;8.95;;;;;;;-2.36;100;95640.6;;;;
2021/03/20 03:02:00;;;;;;;16.25;8.95;;;;;;;-2.36;100;95640.6;;;;
2021/03/20 03:03:05;;;;;;;16.25;8.95;;;;;;;-2.36;100;95640.6;;;;
2021/03/20 03:04:10;;;;;;;16.25;8.95;;;;;;;-2.36;100;95640.6;;;;
2021/03/20 03:05:15;;;;;;;15.85;8.849999;;;;;;;-2.06;100;95644.21;;;;
2021/03/20 03:06:19;;;;;;;15.85;8.849999;;;;;;;-2.06;100;95644.21;;;;
2021/03/20 03:07:28;;;;;;;15.85;8.849999;;;;;;;-2.06;100;95644.21;;;;
2021/03/20 03:08:32;;;;;;;15.85;8.849999;;;;;;;-2.06;100;95644.21;;;;
2021/03/20 03:09:40;;;;;;;15.85;8.849999;;;;;;;-2.06;100;95644.21;;;;
2021/03/20 03:10:44;;;;;;;15.85;8.849999;;;;;;;-2.06;100;95644.21;;;;
2021/03/20 03:11:49;;;;;;;15.85;8.849999;;;;;;;-2.06;100;95644.21;;;;
2021/03/20 03:12:54;;;;;;;15.85;8.849999;;;;;;;-2.06;100;95644.21;;;;
2021/03/20 03:13:59;;;;;;;15.85;8.849999;;;;;;;-2.06;100;95644.21;;;;
2021/03/20 03:15:06;;;;;;;14.8;8.500002;;;;;;;-1.96;100;95643.63;;;;
2021/03/20 03:16:11;;;;;;;14.8;8.500002;;;;;;;-1.96;100;95643.63;;;;
2021/03/20 03:17:17;;;;;;;14.8;8.500002;;;;;;;-1.96;100;95643.63;;;;
2021/03/20 03:18:19;;;;;;;14.8;8.500002;;;;;;;-1.96;100;95643.63;;;;
2021/03/20 03:19:26;;;;;;;14.8;8.500002;;;;;;;-1.96;100;95643.63;;;;
2021/03/20 03:20:32;;;;;;;14.8;8.500002;;;;;;;-1.96;100;95643.63;;;;
2021/03/20 03:21:39;;;;;;;14.8;8.500002;;;;;;;-1.96;100;95643.63;;;;
2021/03/20 03:22:46;;;;;;;14.8;8.500002;;;;;;;-1.96;100;95643.63;;;;
2021/03/20 03:23:54;;;;;;;14.8;8.500002;;;;;;;-1.96;100;95643.63;;;;
2021/03/20 03:24:55;;;;;;;14.8;8.500002;;;;;;;-1.96;100;95643.63;;;;
2021/03/20 03:25:59;;;;;;;17.15;9.8;;;;;;;-1.89;100;95649.17;;;;
2021/03/20 03:27:02;;;;;;;17.15;9.8;;;;;;;-1.89;100;95649.17;;;;
2021/03/20 03:28:08;;;;;;;17.15;9.8;;;;;;;-1.89;100;95649.17;;;;
2021/03/20 03:29:12;;;;;;;17.15;9.8;;;;;;;-1.89;100;95649.17;;;;
2021/03/20 03:30:16;;;;;;;17.15;9.8;;;;;;;-1.89;100;95649.17;;;;
2021/03/20 03:31:20;;;;;;;17.15;9.8;;;;;;;-1.89;100;95649.17;;;;
2021/03/20 03:32:27;;;;;;;17.15;9.8;;;;;;;-1.89;100;95649.17;;;;
2021/03/20 03:33:34;;;;;;;17.15;9.8;;;;;;;-1.89;100;95649.17;;;;
2021/03/20 03:34:39;;;;;;;17.15;9.8;;;;;;;-1.89;100;95649.17;;;;
2021/03/20 03:35:47;;;;;;;17.15;9.8;;;;;;;-1.89;100;95649.17;;;;
2021/03/20 03:36:51;;;;;;;12.85;8.099999;;;;;;;-1.86;100;95656.8;;;;
2021/03/20 03:38:00;;;;;;;12.85;8.099999;;;;;;;-1.86;100;95656.8;;;;
2021/03/20 03:39:07;;;;;;;12.85;8.099999;;;;;;;-1.86;100;95656.8;;;;
2021/03/20 03:40:16;;;;;;;12.85;8.099999;;;;;;;-1.86;100;95656.8;;;;
2021/03/20 03:41:23;;;;;;;12.85;8.099999;;;;;;;-1.86;100;95656.8;;;;
2021/03/20 03:42:28;;;;;;;12.85;8.099999;;;;;;;-1.86;100;95656.8;;;;
2021/03/20 03:43:29;;;;;;;12.85;8.099999;;;;;;;-1.86;100;95656.8;;;;
2021/03/20 03:44:29;;;;;;;12.85;8.099999;;;;;;;-1.86;100;95656.8;;;;
2021/03/20 03:45:30;;;;;;;12.85;8.099999;;;;;;;-1.86;100;95656.8;;;;
2021/03/20 03:46:30;;;;;;;12.85;8.099999;;;;;;;-1.86;100;95656.8;;;;
2021/03/20 03:47:34;;;;;;;14.7;8.249999;;;;;;;-1.81;100;95655.84;;;;
2021/03/20 03:48:35;;;;;;;14.7;8.249999;;;;;;;-1.81;100;95655.84;;;;
2021/03/20 03:49:36;;;;;;;14.7;8.249999;;;;;;;-1.81;100;95655.84;;;;
2021/03/20 03:50:37;;;;;;;14.7;8.249999;;;;;;;-1.81;100;95655.84;;;;
2021/03/20 03:51:40;;;;;;;14.7;8.249999;;;;;;;-1.81;100;95655.84;;;;
2021/03/20 03:52:40;;;;;;;14.7;8.249999;;;;;;;-1.81;100;95655.84;;;;
2021/03/20 03:53:42;;;;;;;14.7;8.249999;;;;;;;-1.81;100;95655.84;;;;
2021/03/20 03:54:43;;;;;;;14.7;8.249999;;;;;;;-1.81;100;95655.84;;;;
2021/03/20 03:55:44;;;;;;;14.7;8.249999;;;;;;;-1.81;100;95655.84;;;;
2021/03/20 03:56:45;;;;;;;14.7;8.249999;;;;;;;-1.81;100;95655.84;;;;
2021/03/20 03:58:14;;;;;;;13.8;7.75;;;;;;;-1.76;100;95656.63;;;;
2021/03/20 03:59:27;;;;;;;13.8;7.75;;;;;;;-1.76;100;95656.63;;;;
2021/03/20 04:00:45;;;;;;;13.8;7.75;;;;;;;-1.76;100;95656.63;;;;
2021/03/20 04:01:51;;;;;;;13.8;7.75;;;;;;;-1.76;100;95656.63;;;;
2021/03/20 04:03:14;;;;;;;13.8;7.75;;;;;;;-1.76;100;95656.63;;;;
2021/03/20 04:04:47;;;;;;;13.8;7.75;;;;;;;-1.76;100;95656.63;;;;
2021/03/20 04:06:00;;;;;;;13.8;7.75;;;;;;;-1.76;100;95656.63;;;;
2021/03/20 04:07:11;;;;;;;13.8;7.75;;;;;;;-1.76;100;95656.63;;;;
2021/03/20 04:08:23;;;;;;;13.8;7.75;;;;;;;-1.76;100;95656.63;;;;
2021/03/20 04:09:34;;;;;;;13.8;7.75;;;;;;;-1.76;100;95656.63;;;;
2021/03/20 04:10:47;;;;;;;13.8;7.75;;;;;;;-1.76;100;95656.63;;;;
2021/03/20 04:11:52;;;;;;;13.8;7.75;;;;;;;-1.76;100;95656.63;;;;
2021/03/20 04:12:59;;;;;;;13.8;7.75;;;;;;;-1.76;100;95656.63;;;;
2021/03/20 04:14:08;;;;;;;13.8;7.75;;;;;;;-1.76;100;95656.63;;;;
2021/03/20 04:15:14;;;;;;;13.8;7.75;;;;;;;-1.76;100;95656.63;;;;
2021/03/20 04:16:28;;;;;;;13.8;7.75;;;;;;;-1.76;100;95656.63;;;;
2021/03/20 04:17:34;;;;;;;13.8;7.75;;;;;;;-1.76;100;95656.63;;;;
2021/03/20 04:18:44;;;;;;;13.8;7.75;;;;;;;-1.76;100;95656.63;;;;
2021/03/20 04:19:58;;;;;;;11.45;7.349999;;;;;;;-1.6;100;95660.74;;;;
2021/03/20 04:21:09;;;;;;;11.45;7.349999;;;;;;;-1.6;100;95660.74;;;;
2021/03/20 04:22:21;;;;;;;11.45;7.349999;;;;;;;-1.6;100;95660.74;;;;
2021/03/20 04:23:29;;;;;;;11.45;7.349999;;;;;;;-1.6;100;95660.74;;;;
2021/03/20 04:24:34;;;;;;;11.45;7.349999;;;;;;;-1.6;100;95660.74;;;;
2021/03/20 04:25:40;;;;;;;11.45;7.349999;;;;;;;-1.6;100;95660.74;;;;
2021/03/20 04:26:50;;;;;;;11.45;7.349999;;;;;;;-1.6;100;95660.74;;;;
2021/03/20 04:27:57;;;;;;;11.45;7.349999;;;;;;;-1.6;100;95660.74;;;;
2021/03/20 04:29:06;;;;;;;11.45;7.349999;;;;;;;-1.6;100;95660.74;;;;
2021/03/20 04:30:15;;;;;;;12.25;7.05;;;;;;;-1.57;100;95663.1;;;;
2021/03/20 04:31:21;;;;;;;12.25;7.05;;;;;;;-1.57;100;95663.1;;;;
2021/03/20 04:32:27;;;;;;;12.25;7.05;;;;;;;-1.57;100;95663.1;;;;
2021/03/20 04:33:34;;;;;;;12.25;7.05;;;;;;;-1.57;100;95663.1;;;;
2021/03/20 04:34:40;;;;;;;12.25;7.05;;;;;;;-1.57;100;95663.1;;;;
2021/03/20 04:35:46;;;;;;;12.25;7.05;;;;;;;-1.57;100;95663.1;;;;
2021/03/20 04:36:52;;;;;;;12.25;7.05;;;;;;;-1.57;100;95663.1;;;;
2021/03/20 04:37:58;;;;;;;12.25;7.05;;;;;;;-1.57;100;95663.1;;;;
2021/03/20 04:39:00;;;;;;;12.25;7.05;;;;;;;-1.57;100;95663.1;;;;
2021/03/20 04:40:05;;;;;;;12.25;7.05;;;;;;;-1.57;100;95663.1;;;;
2021/03/20 04:41:10;;;;;;;13.1;7.5;;;;;;;-1.47;100;95667.86;;;;
2021/03/20 04:42:12;;;;;;;13.1;7.5;;;;;;;-1.47;100;95667.86;;;;
2021/03/20 04:43:15;;;;;;;13.1;7.5;;;;;;;-1.47;100;95667.86;;;;
2021/03/20 04:44:20;;;;;;;13.1;7.5;;;;;;;-1.47;100;95667.86;;;;
2021/03/20 04:45:21;;;;;;;13.1;7.5;;;;;;;-1.47;100;95667.86;;;;
2021/03/20 04:46:28;;;;;;;13.1;7.5;;;;;;;-1.47;100;95667.86;;;;
2021/03/20 04:47:32;;;;;;;13.1;7.5;;;;;;;-1.47;100;95667.86;;;;
2021/03/20 04:48:38;;;;;;;13.1;7.5;;;;;;;-1.47;100;95667.86;;;;
2021/03/20 04:49:42;;;;;;;13.1;7.5;;;;;;;-1.47;100;95667.86;;;;
2021/03/20 04:50:47;;;;;;;13.1;7.5;;;;;;;-1.47;100;95667.86;;;;
2021/03/20 04:51:54;;;;;;;9.15;6.349999;;;;;;;-1.41;100;95670.33;;;;
2021/03/20 04:53:01;;;;;;;9.15;6.349999;;;;;;;-1.41;100;95670.33;;;;
2021/03/20 04:54:02;;;;;;;9.15;6.349999;;;;;;;-1.41;100;95670.33;;;;
2021/03/20 04:55:07;;;;;;;9.15;6.349999;;;;;;;-1.41;100;95670.33;;;;
2021/03/20 04:56:11;;;;;;;9.15;6.349999;;;;;;;-1.41;100;95670.33;;;;
2021/03/20 04:57:17;;;;;;;9.15;6.349999;;;;;;;-1.41;100;95670.33;;;;
2021/03/20 04:58:32;;;;;;;9.15;6.349999;;;;;;;-1.41;100;95670.33;;;;
2021/03/20 04:59:41;;;;;;;9.15;6.349999;;;;;;;-1.41;100;95670.33;;;;
2021/03/20 05:00:51;;;;;;;9.15;6.349999;;;;;;;-1.41;100;95670.33;;;;
2021/03/20 05:01:57;;;;;;;10.35;6.749999;;;;;;;-1.41;100;95676.95;;;;
2021/03/20 05:03:04;;;;;;;10.35;6.749999;;;;;;;-1.41;100;95676.95;;;;
2021/03/20 05:04:24;;;;;;;10.35;6.749999;;;;;;;-1.41;100;95676.95;;;;
2021/03/20 05:05:29;;;;;;;10.35;6.749999;;;;;;;-1.41;100;95676.95;;;;
2021/03/20 05:06:32;;;;;;;10.35;6.749999;;;;;;;-1.41;100;95676.95;;;;
2021/03/20 05:07:35;;;;;;;10.35;6.749999;;;;;;;-1.41;100;95676.95;;;;
2021/03/20 05:08:37;;;;;;;10.35;6.749999;;;;;;;-1.41;100;95676.95;;;;
2021/03/20 05:09:40;;;;;;;10.35;6.749999;;;;;;;-1.41;100;95676.95;;;;
2021/03/20 05:10:40;;;;;;;10.35;6.749999;;;;;;;-1.41;100;95676.95;;;;
2021/03/20 05:11:45;;;;;;;10.35;6.749999;;;;;;;-1.41;100;95676.95;;;;
2021/03/20 05:12:53;;;;;;;10.9;7.099999;;;;;;;-1.42;100;95683.64;;;;
2021/03/20 05:13:56;;;;;;;10.9;7.099999;;;;;;;-1.42;100;95683.64;;;;
2021/03/20 05:15:02;;;;;;;10.9;7.099999;;;;;;;-1.42;100;95683.64;;;;
2021/03/20 05:16:20;;;;;;;10.9;7.099999;;;;;;;-1.42;100;95683.64;;;;
2021/03/20 05:17:32;;;;;;;10.9;7.099999;;;;;;;-1.42;100;95683.64;;;;
2021/03/20 05:18:33;;;;;;;10.9;7.099999;;;;;;;-1.42;100;95683.64;;;;
2021/03/20 05:19:33;;;;;;;10.9;7.099999;;;;;;;-1.42;100;95683.64;;;;
2021/03/20 05:20:34;;;;;;;10.9;7.099999;;;;;;;-1.42;100;95683.64;;;;
2021/03/20 05:21:34;;;;;;;10.9;7.099999;;;;;;;-1.42;100;95683.64;;;;
2021/03/20 05:22:39;;;;;;;10.9;7.099999;;;;;;;-1.42;100;95683.64;;;;
2021/03/20 05:23:39;;;;;;;11.65;7.25;;;;;;;-1.47;100;95687.23;;;;
2021/03/20 05:24:40;;;;;;;11.65;7.25;;;;;;;-1.47;100;95687.23;;;;
2021/03/20 05:25:40;;;;;;;11.65;7.25;;;;;;;-1.47;100;95687.23;;;;
2021/03/20 05:26:41;;;;;;;11.65;7.25;;;;;;;-1.47;100;95687.23;;;;
2021/03/20 05:27:43;;;;;;;11.65;7.25;;;;;;;-1.47;100;95687.23;;;;
2021/03/20 05:28:44;;;;;;;11.65;7.25;;;;;;;-1.47;100;95687.23;;;;
2021/03/20 05:29:44;;;;;;;11.65;7.25;;;;;;;-1.47;100;95687.23;;;;
2021/03/20 05:30:45;;;;;;;11.65;7.25;;;;;;;-1.47;100;95687.23;;;;
2021/03/20 05:31:46;;;;;;;11.65;7.25;;;;;;;-1.47;100;95687.23;;;;
2021/03/20 05:32:47;;;;;;;11.65;7.25;;;;;;;-1.47;100;95687.23;;;;
2021/03/20 05:33:47;;;;;;;11.65;7.25;;;;;;;-1.47;100;95687.23;;;;
2021/03/20 05:34:50;;;;;;;11.6;6.950001;;;;;;;-1.46;100;95697.25;;;;
2021/03/20 05:35:52;;;;;;;11.6;6.950001;;;;;;;-1.46;100;95697.25;;;;
2021/03/20 05:36:53;;;;;;;11.6;6.950001;;;;;;;-1.46;100;95697.25;;;;
2021/03/20 05:37:54;;;;;;;11.6;6.950001;;;;;;;-1.46;100;95697.25;;;;
2021/03/20 05:38:54;;;;;;;11.6;6.950001;;;;;;;-1.46;100;95697.25;;;;
2021/03/20 05:39:55;;;;;;;11.6;6.950001;;;;;;;-1.46;100;95697.25;;;;
2021/03/20 05:40:55;;;;;;;11.6;6.950001;;;;;;;-1.46;100;95697.25;;;;
2021/03/20 05:42:00;;;;;;;11.6;6.950001;;;;;;;-1.46;100;95697.25;;;;
2021/03/20 05:43:14;;;;;;;11.6;6.950001;;;;;;;-1.46;100;95697.25;;;;
2021/03/20 05:44:38;;;;;;;11.6;6.950001;;;;;;;-1.46;100;95697.25;;;;
2021/03/20 05:45:51;;;;;;;9.2;6.35;;;;;;;-1.39;100;95690.39;;;;
2021/03/20 05:47:03;;;;;;;9.2;6.35;;;;;;;-1.39;100;95690.39;;;;
2021/03/20 05:48:10;;;;;;;9.2;6.35;;;;;;;-1.39;100;95690.39;;;;
2021/03/20 05:49:17;;;;;;;9.2;6.35;;;;;;;-1.39;100;95690.39;;;;
2021/03/20 05:50:58;;;;;;;9.2;6.35;;;;;;;-1.39;100;95690.39;;;;
2021/03/20 05:52:13;;;;;;;9.2;6.35;;;;;;;-1.39;100;95690.39;;;;
2021/03/20 05:53:32;;;;;;;9.2;6.35;;;;;;;-1.39;100;95690.39;;;;
2021/03/20 05:55:01;;;;;;;9.2;6.35;;;;;;;-1.39;100;95690.39;;;;
2021/03/20 05:56:18;;;;;;;9.2;6.35;;;;;;;-1.39;100;95690.39;;;;
2021/03/20 05:57:26;;;;;;;9.2;6.35;;;;;;;-1.39;100;95690.39;;;;
2021/03/20 05:58:34;;;;;;;9.2;6.35;;;;;;;-1.39;100;95690.39;;;;
2021/03/20 05:59:54;;;;;;;9.2;6.35;;;;;;;-1.39;100;95690.39;;;;
2021/03/20 06:01:06;;;;;;;9.2;6.35;;;;;;;-1.39;100;95690.39;;;;
2021/03/20 06:02:15;;;;;;;9.2;6.35;;;;;;;-1.39;100;95690.39;;;;
2021/03/20 06:03:25;;;;;;;9.2;6.35;;;;;;;-1.39;100;95690.39;;;;
2021/03/20 06:04:52;;;;;;;9.2;6.35;;;;;;;-1.39;100;95690.39;;;;
2021/03/20 06:06:07;;;;;;;9.2;6.35;;;;;;;-1.39;100;95690.39;;;;
2021/03/20 06:07:28;;;;;;;8.85;5.799999;;;;;;;-1.1;100;95709.98;;;;
2021/03/20 06:08:46;;;;;;;8.85;5.799999;;;;;;;-1.1;100;95709.98;;;;
2021/03/20 06:10:01;;;;;;;8.85;5.799999;;;;;;;-1.1;100;95709.98;;;;
2021/03/20 06:11:17;;;;;;;8.85;5.799999;;;;;;;-1.1;100;95709.98;;;;
2021/03/20 06:12:31;;;;;;;8.85;5.799999;;;;;;;-1.1;100;95709.98;;;;
2021/03/20 06:13:44;;;;;;;8.85;5.799999;;;;;;;-1.1;100;95709.98;;;;
2021/03/20 06:14:55;;;;;;;8.85;5.799999;;;;;;;-1.1;100;95709.98;;;;
2021/03/20 06:16:10;;;;;;;8.85;5.799999;;;;;;;-1.1;100;95709.98;;;;
2021/03/20 06:17:30;;;;;;;6.599999;4.5;;;;;;;-1.2;100;95722.05;;;;
2021/03/20 06:18:46;;;;;;;6.599999;4.5;;;;;;;-1.2;100;95722.05;;;;
2021/03/20 06:21:05;;;;;;;6.599999;4.5;;;;;;;-1.2;100;95722.05;;;;
2021/03/20 06:22:13;;;;;;;6.599999;4.5;;;;;;;-1.2;100;95722.05;;;;
2021/03/20 06:23:41;;;;;;;6.599999;4.5;;;;;;;-1.2;100;95722.05;;;;
2021/03/20 06:25:00;;;;;;;6.599999;4.5;;;;;;;-1.2;100;95722.05;;;;
2021/03/20 06:26:21;;;;;;;6.599999;4.5;;;;;;;-1.2;100;95722.05;;;;
2021/03/20 06:27:26;;;;;;;6.599999;4.5;;;;;;;-1.2;100;95722.05;;;;
2021/03/20 06:28:32;;;;;;;7.4;3.95;;;;;;;-1.19;100;95728.54;;;;
2021/03/20 06:29:39;;;;;;;7.4;3.95;;;;;;;-1.19;100;95728.54;;;;
2021/03/20 06:30:52;;;;;;;7.4;3.95;;;;;;;-1.19;100;95728.54;;;;
2021/03/20 06:31:57;;;;;;;7.4;3.95;;;;;;;-1.19;100;95728.54;;;;
2021/03/20 06:33:05;;;;;;;7.4;3.95;;;;;;;-1.19;100;95728.54;;;;
2021/03/20 06:34:14;;;;;;;7.4;3.95;;;;;;;-1.19;100;95728.54;;;;
2021/03/20 06:35:20;;;;;;;7.4;3.95;;;;;;;-1.19;100;95728.54;;;;
2021/03/20 06:36:31;;;;;;;7.4;3.95;;;;;;;-1.19;100;95728.54;;;;